Time;durP1;ratioP1;P1;durP2;ratioP2;P2;SDS_P1;SDS_P2;PMS_P1;PMS_P2;Temp;Humidity;BMP_temperature;BMP_pressure;BME280_temperature;BME280_humidity;BME280_pressure;Samples;Min_cycle;Max_cycle;Signal;HPM_P1;HPM_P2
2022/10/19 00:00:30;;;;;;;5.15;1.95;;;13.00;97.60;;;;;;4910219;29;20713;-72
2022/10/19 00:02:56;;;;;;;9.35;1.70;;;13.00;97.60;;;;;;4927988;29;20040;-72
2022/10/19 00:05:22;;;;;;;5.85;2.10;;;13.00;97.70;;;;;;4913812;29;20043;-72
2022/10/19 00:07:47;;;;;;;4.55;2.00;;;13.00;97.70;;;;;;4912055;29;20087;-72
2022/10/19 00:10:13;;;;;;;3.70;1.83;;;13.00;97.70;;;;;;4911998;29;20066;-72
2022/10/19 00:12:39;;;;;;;6.45;1.85;;;13.10;97.60;;;;;;4910015;29;20035;-72
2022/10/19 00:15:05;;;;;;;4.95;1.55;;;13.10;97.50;;;;;;4910470;29;20131;-72
2022/10/19 00:17:32;;;;;;;8.68;2.40;;;13.10;97.50;;;;;;4919076;29;20059;-72
2022/10/19 00:19:58;;;;;;;6.72;1.92;;;13.10;97.60;;;;;;4912000;29;20044;-72
2022/10/19 00:22:23;;;;;;;3.63;1.50;;;13.10;97.60;;;;;;4911683;29;20036;-72
2022/10/19 00:24:49;;;;;;;4.03;1.45;;;13.10;97.50;;;;;;4911384;29;20043;-65
2022/10/19 00:27:16;;;;;;;4.20;1.63;;;13.10;97.50;;;;;;4919846;29;20141;-65
2022/10/19 00:29:41;;;;;;;3.38;1.38;;;13.10;97.40;;;;;;4925171;29;20759;-72
2022/10/19 00:32:07;;;;;;;4.55;1.60;;;13.10;97.40;;;;;;4914902;29;20047;-72
2022/10/19 00:34:33;;;;;;;9.88;2.17;;;13.20;97.30;;;;;;4911908;29;20036;-72
2022/10/19 00:36:59;;;;;;;4.95;1.48;;;13.20;97.30;;;;;;4912772;29;20043;-72
2022/10/19 00:39:25;;;;;;;2.80;1.40;;;13.20;97.20;;;;;;4913557;29;20032;-73
2022/10/19 00:41:50;;;;;;;3.08;1.27;;;13.20;97.30;;;;;;4913535;29;20565;-72
2022/10/19 00:44:16;;;;;;;7.03;2.00;;;13.10;97.30;;;;;;4915293;29;20114;-72
2022/10/19 00:46:44;;;;;;;4.95;1.67;;;13.20;97.30;;;;;;4916329;29;20123;-72
2022/10/19 00:49:20;;;;;;;5.13;1.23;;;13.10;97.30;;;;;;4915257;29;20039;-72
2022/10/19 00:51:54;;;;;;;5.53;1.63;;;13.10;97.30;;;;;;4910696;29;20035;-72
2022/10/19 00:54:21;;;;;;;8.18;1.70;;;13.10;97.30;;;;;;4920472;29;20054;-72
2022/10/19 00:56:48;;;;;;;3.75;1.75;;;13.10;97.30;;;;;;4917914;29;20040;-72
2022/10/19 00:59:17;;;;;;;6.75;1.50;;;13.10;97.30;;;;;;4915959;29;20031;-72
2022/10/19 01:01:45;;;;;;;4.88;1.35;;;13.10;97.30;;;;;;4915197;29;20099;-72
2022/10/19 01:04:12;;;;;;;6.88;1.77;;;13.20;97.30;;;;;;4913567;29;20040;-72
2022/10/19 01:06:39;;;;;;;3.33;1.80;;;13.20;97.40;;;;;;4915178;29;20032;-72
2022/10/19 01:09:06;;;;;;;5.43;1.65;;;13.20;97.40;;;;;;4913565;29;20055;-72
2022/10/19 01:11:58;;;;;;;3.58;1.42;;;13.20;97.40;;;;;;4915554;29;20036;-72
2022/10/19 01:15:01;;;;;;;3.92;1.80;;;13.20;97.30;;;;;;4891935;29;20142;-72
2022/10/19 01:17:35;;;;;;;4.43;1.30;;;13.20;97.30;;;;;;4915946;29;20036;-72
2022/10/19 01:20:22;;;;;;;2.85;1.40;;;13.20;97.20;;;;;;4913895;29;20040;-72
2022/10/19 01:23:26;;;;;;;6.10;1.60;;;13.20;97.30;;;;;;4916201;29;20039;-72
2022/10/19 01:26:19;;;;;;;8.90;2.28;;;13.10;97.40;;;;;;4915621;29;20035;-73
2022/10/19 01:29:10;;;;;;;6.25;1.88;;;13.10;97.30;;;;;;4911191;29;20489;-72
2022/10/19 01:32:09;;;;;;;2.90;1.45;;;13.10;97.30;;;;;;4916798;29;20084;-73
2022/10/19 01:35:04;;;;;;;4.70;1.48;;;13.10;97.20;;;;;;4913298;29;20505;-72
2022/10/19 01:37:43;;;;;;;3.75;1.27;;;13.10;97.20;;;;;;4908589;29;20165;-72
2022/10/19 01:40:24;;;;;;;2.17;1.15;;;13.10;97.30;;;;;;4914597;29;20056;-72
2022/10/19 01:42:57;;;;;;;5.60;1.42;;;13.10;97.30;;;;;;4912470;29;20156;-73
2022/10/19 01:45:37;;;;;;;2.42;1.27;;;13.10;97.40;;;;;;4914715;29;20030;-65
2022/10/19 01:48:12;;;;;;;3.20;1.13;;;13.10;97.40;;;;;;4917754;29;20044;-65
2022/10/19 01:50:46;;;;;;;3.00;1.20;;;13.10;97.40;;;;;;4910739;29;20032;-72
2022/10/19 01:53:14;;;;;;;6.40;1.48;;;13.20;97.40;;;;;;4918122;29;20039;-66
2022/10/19 01:55:43;;;;;;;3.67;1.30;;;13.10;97.30;;;;;;4921869;29;20493;-65
2022/10/19 01:58:14;;;;;;;5.18;1.33;;;13.10;97.20;;;;;;4918955;29;20146;-65
2022/10/19 02:00:43;;;;;;;3.00;1.40;;;13.10;97.20;;;;;;4917210;29;20032;-65
2022/10/19 02:03:11;;;;;;;4.82;1.30;;;13.10;97.10;;;;;;4913563;29;20032;-65
2022/10/19 02:05:38;;;;;;;6.38;1.38;;;13.10;97.10;;;;;;4911023;29;20556;-65
2022/10/19 02:08:29;;;;;;;4.97;1.10;;;13.10;97.10;;;;;;4913995;29;20032;-65
2022/10/19 02:10:56;;;;;;;1.67;1.10;;;13.10;97.10;;;;;;4908963;29;20650;-65
2022/10/19 02:13:25;;;;;;;4.90;1.40;;;13.10;97.10;;;;;;4916300;29;20771;-65
2022/10/19 02:15:55;;;;;;;3.83;1.42;;;13.10;97.10;;;;;;4917694;29;20034;-65
2022/10/19 02:18:27;;;;;;;3.15;1.42;;;13.10;97.00;;;;;;4908021;29;20115;-65
2022/10/19 02:20:53;;;;;;;6.50;1.20;;;13.10;97.10;;;;;;4909940;29;20747;-65
2022/10/19 02:23:23;;;;;;;3.85;1.33;;;13.10;97.10;;;;;;4913140;29;20043;-65
2022/10/19 02:25:49;;;;;;;5.07;1.35;;;13.10;97.00;;;;;;4909586;29;20031;-65
2022/10/19 02:28:15;;;;;;;2.75;1.45;;;13.00;97.10;;;;;;4915165;29;20051;-66
2022/10/19 02:30:41;;;;;;;4.32;1.38;;;13.00;97.10;;;;;;4913876;29;20569;-65
2022/10/19 02:33:07;;;;;;;6.25;1.73;;;13.00;97.00;;;;;;4917575;29;20735;-65
2022/10/19 02:35:33;;;;;;;7.03;1.85;;;13.10;97.10;;;;;;4914285;29;20728;-65
2022/10/19 02:38:02;;;;;;;3.35;1.50;;;13.10;97.20;;;;;;4917215;29;20430;-72
2022/10/19 02:40:36;;;;;;;3.22;1.38;;;13.10;97.10;;;;;;4907790;29;20027;-65
2022/10/19 02:43:08;;;;;;;4.05;1.33;;;13.10;97.20;;;;;;4912842;29;20378;-65
2022/10/19 02:45:39;;;;;;;8.20;1.50;;;13.10;97.20;;;;;;4913537;29;20473;-65
2022/10/19 02:48:16;;;;;;;3.65;1.33;;;13.10;97.10;;;;;;4908446;29;20298;-65
2022/10/19 02:50:46;;;;;;;4.30;1.80;;;13.10;97.00;;;;;;4917011;29;20043;-65
2022/10/19 02:53:13;;;;;;;3.83;1.55;;;13.20;97.00;;;;;;4918682;29;20048;-65
2022/10/19 02:55:40;;;;;;;2.42;0.98;;;13.20;96.80;;;;;;4911377;29;20047;-65
2022/10/19 02:58:06;;;;;;;4.93;1.20;;;13.20;96.80;;;;;;4914009;29;20123;-65
2022/10/19 03:00:31;;;;;;;5.60;1.42;;;13.20;96.70;;;;;;4911802;29;20031;-65
2022/10/19 03:02:57;;;;;;;4.47;1.55;;;13.20;96.70;;;;;;4906721;29;20091;-65
2022/10/19 03:05:23;;;;;;;4.55;1.50;;;13.20;96.70;;;;;;4913511;29;20032;-65
2022/10/19 03:07:49;;;;;;;9.80;1.38;;;13.20;96.70;;;;;;4911569;29;20044;-65
2022/10/19 03:10:14;;;;;;;5.30;1.42;;;13.20;96.70;;;;;;4907496;29;20042;-65
2022/10/19 03:12:40;;;;;;;2.50;1.20;;;13.20;96.70;;;;;;4915381;29;20028;-65
2022/10/19 03:15:06;;;;;;;4.18;1.30;;;13.20;96.60;;;;;;4917018;29;20044;-65
2022/10/19 03:17:32;;;;;;;3.47;1.40;;;13.30;96.60;;;;;;4907076;29;20039;-66
2022/10/19 03:19:58;;;;;;;8.80;1.90;;;13.20;96.50;;;;;;4912965;29;20036;-65
2022/10/19 03:22:24;;;;;;;3.22;1.30;;;13.20;96.40;;;;;;4911118;29;20380;-65
2022/10/19 03:24:50;;;;;;;5.60;1.60;;;13.20;96.50;;;;;;4907162;29;20032;-65
2022/10/19 03:27:15;;;;;;;4.38;1.20;;;13.20;96.60;;;;;;4916890;29;20035;-65
2022/10/19 03:29:41;;;;;;;1.60;1.20;;;13.20;96.60;;;;;;4917356;29;20110;-65
2022/10/19 03:32:07;;;;;;;3.90;1.13;;;13.20;96.60;;;;;;4907032;29;20036;-65
2022/10/19 03:34:32;;;;;;;4.07;0.90;;;13.20;96.60;;;;;;4914129;29;20036;-65
2022/10/19 03:36:58;;;;;;;4.60;1.48;;;13.20;96.60;;;;;;4912895;29;20039;-65
2022/10/19 03:39:24;;;;;;;5.18;1.20;;;13.10;96.50;;;;;;4907828;29;20114;-65
2022/10/19 03:41:50;;;;;;;7.88;1.30;;;13.20;96.60;;;;;;4914302;29;20056;-65
2022/10/19 03:44:16;;;;;;;3.40;1.00;;;13.20;96.60;;;;;;4911160;29;20135;-65
2022/10/19 03:46:41;;;;;;;7.32;1.45;;;13.20;96.50;;;;;;4911967;29;20496;-65
2022/10/19 03:49:12;;;;;;;4.97;1.00;;;13.20;96.50;;;;;;4911545;29;20867;-65
2022/10/19 03:51:38;;;;;;;6.57;1.13;;;13.20;96.60;;;;;;4913696;29;20028;-65
2022/10/19 03:54:06;;;;;;;6.55;1.23;;;13.20;96.40;;;;;;4908407;29;20512;-65
2022/10/19 03:56:34;;;;;;;2.15;0.98;;;13.20;96.40;;;;;;4915921;29;20043;-65
2022/10/19 03:59:01;;;;;;;5.88;1.10;;;13.20;96.40;;;;;;4912225;29;20032;-66
2022/10/19 04:01:34;;;;;;;2.20;1.02;;;13.20;96.50;;;;;;4907168;29;20560;-66
2022/10/19 04:04:02;;;;;;;2.25;1.48;;;13.20;96.60;;;;;;4916606;29;20040;-65
2022/10/19 04:06:33;;;;;;;7.65;1.67;;;13.10;96.60;;;;;;4912481;29;20043;-65
2022/10/19 04:08:59;;;;;;;7.40;2.28;;;13.10;96.80;;;;;;4929403;29;20497;-65
2022/10/19 04:11:28;;;;;;;3.63;1.55;;;13.10;96.80;;;;;;4912872;29;20042;-66
2022/10/19 04:13:55;;;;;;;5.13;1.70;;;13.10;96.80;;;;;;4908539;29;20051;-65
2022/10/19 04:16:22;;;;;;;4.43;1.60;;;13.10;96.80;;;;;;4909509;29;20031;-65
2022/10/19 04:18:48;;;;;;;4.40;1.52;;;13.10;96.70;;;;;;4916299;29;20039;-65
2022/10/19 04:21:23;;;;;;;5.55;2.00;;;13.10;96.70;;;;;;4912335;29;20032;-65
2022/10/19 04:23:49;;;;;;;3.60;1.60;;;13.20;96.70;;;;;;4914978;29;20027;-65
2022/10/19 04:26:15;;;;;;;6.15;1.63;;;13.20;96.60;;;;;;4918345;29;20547;-65
2022/10/19 04:28:41;;;;;;;3.85;1.48;;;13.10;96.60;;;;;;4918299;29;20040;-65
2022/10/19 04:31:07;;;;;;;4.35;1.20;;;13.20;97.00;;;;;;4910415;29;20043;-65
2022/10/19 04:33:33;;;;;;;8.18;1.58;;;13.20;96.80;;;;;;4916615;29;20057;-65
2022/10/19 04:36:06;;;;;;;4.35;1.33;;;13.20;96.70;;;;;;4911820;29;20047;-65
2022/10/19 04:38:32;;;;;;;4.63;1.27;;;13.20;96.70;;;;;;4918081;29;20047;-65
2022/10/19 04:41:06;;;;;;;4.35;1.10;;;13.20;96.60;;;;;;4923993;29;20051;-65
2022/10/19 04:43:31;;;;;;;1.63;0.80;;;13.10;96.60;;;;;;4910790;29;20043;-65
2022/10/19 04:46:04;;;;;;;3.40;1.02;;;13.10;96.60;;;;;;4918396;29;20028;-65
2022/10/19 04:48:30;;;;;;;2.15;0.80;;;13.10;96.60;;;;;;4926339;29;20035;-65
2022/10/19 04:50:56;;;;;;;4.78;1.35;;;13.20;96.50;;;;;;4918586;29;20032;-65
2022/10/19 04:53:23;;;;;;;1.92;0.95;;;13.10;96.40;;;;;;4921310;29;20078;-65
2022/10/19 04:55:49;;;;;;;1.65;0.82;;;13.10;96.40;;;;;;4918913;29;20899;-65
2022/10/19 04:58:15;;;;;;;3.53;0.90;;;13.10;96.40;;;;;;4926949;29;20035;-66
2022/10/19 05:00:40;;;;;;;4.85;1.02;;;13.10;96.40;;;;;;4921425;29;20044;-65
2022/10/19 05:03:06;;;;;;;7.07;1.08;;;13.10;96.40;;;;;;4924066;29;20035;-72
2022/10/19 05:05:33;;;;;;;3.35;1.00;;;13.10;96.40;;;;;;4923592;29;20030;-72
2022/10/19 05:07:59;;;;;;;6.20;1.00;;;13.10;96.30;;;;;;4932299;28;20546;-65
2022/10/19 05:10:25;;;;;;;3.25;0.90;;;13.10;96.40;;;;;;4922787;29;20142;-65
2022/10/19 05:12:51;;;;;;;2.13;0.80;;;13.10;96.40;;;;;;4917587;29;20043;-65
2022/10/19 05:15:17;;;;;;;4.18;1.02;;;13.10;96.50;;;;;;4920281;29;20039;-65
2022/10/19 05:17:43;;;;;;;3.75;1.00;;;13.10;96.40;;;;;;4923312;29;20035;-65
2022/10/19 05:20:10;;;;;;;3.30;0.60;;;13.10;96.40;;;;;;4920368;29;20036;-65
2022/10/19 05:22:36;;;;;;;4.95;0.90;;;13.10;96.40;;;;;;4923362;28;20416;-65
2022/10/19 05:25:03;;;;;;;1.13;0.77;;;13.20;96.30;;;;;;4921654;28;20091;-65
2022/10/19 05:27:28;;;;;;;1.88;0.70;;;13.20;96.20;;;;;;4920986;29;20043;-65
2022/10/19 05:29:54;;;;;;;3.20;1.00;;;13.10;96.20;;;;;;4914073;29;20032;-65
2022/10/19 05:32:20;;;;;;;3.08;0.73;;;13.10;96.10;;;;;;4922599;29;20700;-65
2022/10/19 05:34:46;;;;;;;2.38;0.88;;;13.10;96.00;;;;;;4920325;29;20056;-65
2022/10/19 05:37:11;;;;;;;3.88;1.23;;;13.20;96.00;;;;;;4919378;29;20044;-65
2022/10/19 05:39:37;;;;;;;4.68;1.13;;;13.10;95.80;;;;;;4921360;29;20115;-71
2022/10/19 05:42:03;;;;;;;2.53;0.68;;;13.20;95.80;;;;;;4925191;29;20039;-72
2022/10/19 05:44:29;;;;;;;4.45;1.00;;;13.20;95.70;;;;;;4927154;29;20039;-72
2022/10/19 05:46:54;;;;;;;2.90;0.68;;;13.20;95.70;;;;;;4916999;28;20497;-73
2022/10/19 05:49:21;;;;;;;3.00;0.50;;;13.10;95.80;;;;;;4925024;29;20036;-72
2022/10/19 05:51:47;;;;;;;1.15;0.80;;;13.10;95.70;;;;;;4918492;29;20574;-65
2022/10/19 05:54:13;;;;;;;4.05;0.85;;;13.10;95.70;;;;;;4925092;29;20050;-65
2022/10/19 05:56:40;;;;;;;1.92;0.70;;;13.10;95.80;;;;;;4913108;29;20043;-65
2022/10/19 05:59:07;;;;;;;3.10;0.93;;;13.10;95.90;;;;;;4922725;29;20113;-65
2022/10/19 06:01:35;;;;;;;2.72;0.70;;;13.10;95.80;;;;;;4922792;29;20126;-72
2022/10/19 06:04:01;;;;;;;5.22;1.33;;;13.20;95.70;;;;;;4918561;29;20079;-73
2022/10/19 06:06:29;;;;;;;2.55;0.60;;;13.20;95.70;;;;;;4918428;29;20032;-73
2022/10/19 06:08:56;;;;;;;2.38;0.75;;;13.20;95.80;;;;;;4922351;28;20407;-73
2022/10/19 06:11:33;;;;;;;1.05;0.50;;;13.20;95.80;;;;;;4913038;29;20035;-73
2022/10/19 06:14:01;;;;;;;0.93;0.57;;;13.20;96.00;;;;;;4916000;29;20885;-73
2022/10/19 06:16:28;;;;;;;2.95;1.00;;;13.30;96.00;;;;;;4917027;29;20038;-71
2022/10/19 06:18:54;;;;;;;4.38;0.70;;;13.30;95.60;;;;;;4928615;29;20028;-71
2022/10/19 06:21:22;;;;;;;3.03;0.80;;;13.30;95.70;;;;;;4921697;29;20090;-72
2022/10/19 06:23:52;;;;;;;5.00;1.00;;;13.30;95.50;;;;;;4923061;29;20027;-72
2022/10/19 06:26:18;;;;;;;2.78;0.68;;;13.30;95.40;;;;;;4914989;29;20038;-72
2022/10/19 06:28:44;;;;;;;2.13;0.82;;;13.30;95.40;;;;;;4912607;29;20039;-72
2022/10/19 06:31:11;;;;;;;4.28;0.70;;;13.40;95.40;;;;;;4917458;29;20465;-71
2022/10/19 06:33:39;;;;;;;2.80;0.90;;;13.30;95.70;;;;;;4916858;29;20032;-72
2022/10/19 06:36:11;;;;;;;3.22;0.90;;;13.40;95.60;;;;;;4918755;29;20071;-71
2022/10/19 06:38:37;;;;;;;2.20;0.68;;;13.40;95.60;;;;;;4922161;29;20106;-72
2022/10/19 06:41:03;;;;;;;2.10;0.70;;;13.40;95.60;;;;;;4916898;29;20036;-72
2022/10/19 06:43:29;;;;;;;4.35;0.75;;;13.40;95.60;;;;;;4917231;29;20071;-72
2022/10/19 06:45:55;;;;;;;5.88;1.42;;;13.50;95.70;;;;;;4917190;29;20115;-72
2022/10/19 06:48:21;;;;;;;2.00;0.50;;;13.50;95.60;;;;;;4916620;29;20193;-72
2022/10/19 06:50:55;;;;;;;1.65;0.40;;;13.50;95.50;;;;;;4916994;29;20500;-72
2022/10/19 06:53:21;;;;;;;1.35;0.40;;;13.60;95.10;;;;;;4915447;29;20044;-72
2022/10/19 06:55:46;;;;;;;4.70;0.60;;;13.50;95.00;;;;;;4914210;29;20075;-72
2022/10/19 06:58:12;;;;;;;2.55;0.60;;;13.50;94.90;;;;;;4920116;29;20050;-71
2022/10/19 07:00:38;;;;;;;2.30;0.50;;;13.50;95.10;;;;;;4917422;29;20034;-72
2022/10/19 07:03:03;;;;;;;1.95;0.75;;;13.50;95.10;;;;;;4917202;29;20039;-72
2022/10/19 07:05:29;;;;;;;2.88;0.60;;;13.50;95.10;;;;;;4926846;29;20697;-72
2022/10/19 07:07:56;;;;;;;2.60;0.50;;;13.60;95.20;;;;;;4917449;29;20483;-65
2022/10/19 07:10:22;;;;;;;2.45;0.85;;;13.70;94.80;;;;;;4912941;29;20028;-65
2022/10/19 07:12:48;;;;;;;3.03;0.57;;;13.60;94.80;;;;;;4919240;29;20035;-65
2022/10/19 07:15:14;;;;;;;4.43;0.70;;;13.70;94.90;;;;;;4921460;29;20047;-65
2022/10/19 07:17:40;;;;;;;2.75;0.63;;;13.70;94.90;;;;;;4912059;29;20042;-66
2022/10/19 07:20:06;;;;;;;0.95;0.50;;;13.70;95.10;;;;;;4919305;29;20118;-66
2022/10/19 07:22:31;;;;;;;3.70;0.93;;;13.70;95.10;;;;;;4920123;29;20035;-66
2022/10/19 07:24:57;;;;;;;1.75;0.40;;;13.80;94.80;;;;;;4920840;29;20034;-66
2022/10/19 07:27:23;;;;;;;2.63;0.55;;;13.80;94.60;;;;;;4918933;29;20620;-66
2022/10/19 07:29:49;;;;;;;5.15;1.60;;;13.80;94.50;;;;;;4912284;29;20071;-65
2022/10/19 07:32:15;;;;;;;7.18;2.00;;;13.90;94.30;;;;;;4916248;29;20186;-65
2022/10/19 07:34:40;;;;;;;3.60;2.03;;;13.80;94.00;;;;;;4918443;29;20131;-65
2022/10/19 07:37:06;;;;;;;3.50;1.52;;;13.90;94.10;;;;;;4926392;29;20039;-66
2022/10/19 07:39:32;;;;;;;3.00;1.23;;;13.90;93.90;;;;;;4911758;29;20027;-66
2022/10/19 07:41:57;;;;;;;5.38;1.63;;;13.90;94.00;;;;;;4912563;29;20039;-66
2022/10/19 07:44:23;;;;;;;3.30;1.20;;;13.90;94.20;;;;;;4917469;29;20036;-66
2022/10/19 07:46:49;;;;;;;2.75;1.95;;;14.00;94.10;;;;;;4916669;29;20040;-66
2022/10/19 07:49:17;;;;;;;5.05;1.02;;;14.00;94.20;;;;;;4914682;29;20031;-66
2022/10/19 07:51:44;;;;;;;3.00;0.73;;;14.10;94.20;;;;;;4920158;28;20103;-66
2022/10/19 07:54:10;;;;;;;3.20;0.70;;;14.10;93.90;;;;;;4923680;29;20538;-66
2022/10/19 07:56:36;;;;;;;2.35;0.63;;;14.10;93.70;;;;;;4917117;29;20044;-67
2022/10/19 07:59:03;;;;;;;2.20;0.63;;;14.20;93.70;;;;;;4919959;29;20032;-67
2022/10/19 08:01:32;;;;;;;1.83;0.63;;;14.20;93.40;;;;;;4917858;29;20048;-67
2022/10/19 08:03:59;;;;;;;1.33;0.52;;;14.20;93.60;;;;;;4917922;29;20467;-67
2022/10/19 08:06:25;;;;;;;1.65;0.52;;;14.30;93.70;;;;;;4916905;29;20038;-67
2022/10/19 08:08:52;;;;;;;1.15;0.50;;;14.20;93.20;;;;;;4912736;29;20028;-67
2022/10/19 08:11:21;;;;;;;1.70;0.38;;;14.30;93.30;;;;;;4918526;29;20083;-67
2022/10/19 08:13:47;;;;;;;1.13;1.02;;;14.30;93.40;;;;;;4919810;28;20200;-69
2022/10/19 08:16:31;;;;;;;1.17;0.43;;;14.40;93.20;;;;;;4914878;29;20843;-66
2022/10/19 08:19:01;;;;;;;3.22;0.60;;;14.50;93.40;;;;;;4914744;29;20040;-65
2022/10/19 08:21:28;;;;;;;3.38;0.88;;;14.50;93.30;;;;;;4918088;29;20020;-64
2022/10/19 08:23:54;;;;;;;2.80;0.98;;;14.60;93.30;;;;;;4908804;29;20166;-65
2022/10/19 08:26:20;;;;;;;1.85;0.50;;;14.60;93.00;;;;;;4920934;29;20028;-66
2022/10/19 08:28:46;;;;;;;2.95;0.77;;;14.70;92.70;;;;;;4914817;29;20028;-66
2022/10/19 08:31:15;;;;;;;3.15;0.50;;;14.70;92.50;;;;;;4913657;29;20127;-65
2022/10/19 08:33:42;;;;;;;1.48;0.45;;;14.70;92.50;;;;;;4921603;29;20123;-65
2022/10/19 08:36:09;;;;;;;0.75;0.30;;;14.80;92.30;;;;;;4928736;28;20044;-63
2022/10/19 08:38:35;;;;;;;1.85;0.45;;;14.80;92.60;;;;;;4912305;29;20147;-65
2022/10/19 08:41:30;;;;;;;3.95;0.57;;;14.80;92.30;;;;;;4919651;29;20044;-65
2022/10/19 08:44:30;;;;;;;3.22;0.50;;;14.90;92.40;;;;;;4906011;28;20078;-64
2022/10/19 08:47:14;;;;;;;2.13;0.35;;;14.90;92.40;;;;;;4919000;29;20815;-65
2022/10/19 08:49:40;;;;;;;4.28;0.47;;;14.90;91.90;;;;;;4912978;29;20385;-63
2022/10/19 08:52:13;;;;;;;4.53;0.45;;;15.00;91.40;;;;;;4917813;29;20043;-64
2022/10/19 08:54:50;;;;;;;4.03;0.70;;;14.90;91.10;;;;;;4917758;29;20063;-64
2022/10/19 08:57:29;;;;;;;4.38;1.40;;;14.90;91.10;;;;;;4915007;29;20046;-63
2022/10/19 09:00:32;;;;;;;2.42;0.55;;;15.00;91.20;;;;;;4907203;29;20252;-64
2022/10/19 09:03:04;;;;;;;3.45;0.80;;;15.00;91.00;;;;;;4921112;29;20103;-64
2022/10/19 09:06:05;;;;;;;2.97;0.65;;;15.10;91.30;;;;;;4928225;29;20402;-64
2022/10/19 09:08:33;;;;;;;3.78;1.02;;;15.20;91.30;;;;;;4887599;29;20722;-64
2022/10/19 09:10:58;;;;;;;2.47;0.77;;;15.20;91.00;;;;;;4913749;29;20048;-65
2022/10/19 09:13:30;;;;;;;6.05;0.80;;;15.20;90.80;;;;;;4918828;29;20110;-65
2022/10/19 09:15:56;;;;;;;3.50;0.65;;;15.30;90.00;;;;;;4915189;29;20047;-65
2022/10/19 09:18:27;;;;;;;3.50;0.90;;;15.30;90.20;;;;;;4922713;29;20027;-66
2022/10/19 09:21:11;;;;;;;1.83;0.70;;;15.30;90.90;;;;;;4913026;29;20024;-66
2022/10/19 09:23:58;;;;;;;6.70;0.90;;;15.40;91.10;;;;;;4919788;29;20059;-65
2022/10/19 09:26:31;;;;;;;4.57;0.77;;;15.50;90.50;;;;;;4916962;29;20321;-64
2022/10/19 09:29:03;;;;;;;1.30;0.50;;;15.50;90.50;;;;;;4917920;29;20046;-66
2022/10/19 09:31:33;;;;;;;5.63;0.82;;;15.70;90.60;;;;;;4917611;29;20027;-63
2022/10/19 09:34:15;;;;;;;3.20;0.90;;;15.80;90.20;;;;;;4917254;29;20036;-64
2022/10/19 09:36:46;;;;;;;3.50;0.80;;;15.90;90.20;;;;;;4913695;29;20119;-65
2022/10/19 09:39:12;;;;;;;4.05;0.82;;;16.00;89.70;;;;;;4918325;29;20039;-65
2022/10/19 09:41:50;;;;;;;6.80;1.35;;;16.10;87.30;;;;;;4919793;29;20021;-65
2022/10/19 09:44:17;;;;;;;2.45;1.15;;;16.10;87.10;;;;;;4915377;29;20041;-65
2022/10/19 09:46:52;;;;;;;2.03;0.73;;;16.20;86.40;;;;;;4916756;29;20123;-65
2022/10/19 09:49:36;;;;;;;4.45;0.95;;;16.30;86.90;;;;;;4918569;29;20034;-65
2022/10/19 09:52:02;;;;;;;5.05;1.02;;;16.40;87.90;;;;;;4916129;29;20112;-65
2022/10/19 09:54:35;;;;;;;11.73;1.80;;;16.60;87.40;;;;;;4917051;29;20090;-64
2022/10/19 09:57:02;;;;;;;6.28;0.90;;;16.70;86.60;;;;;;4921650;29;20074;-65
2022/10/19 09:59:35;;;;;;;3.53;0.55;;;16.90;85.80;;;;;;4932633;29;20086;-65
2022/10/19 10:02:19;;;;;;;3.20;0.80;;;16.90;83.80;;;;;;4916094;29;20406;-74
2022/10/19 10:05:08;;;;;;;3.63;0.70;;;16.90;82.20;;;;;;4922567;29;20042;-65
2022/10/19 10:07:36;;;;;;;3.05;1.05;;;16.80;82.40;;;;;;4918422;29;20491;-70
2022/10/19 10:10:18;;;;;;;3.03;0.85;;;16.60;82.80;;;;;;4915819;29;20047;-70
2022/10/19 10:12:44;;;;;;;6.07;1.30;;;16.50;83.70;;;;;;4919852;29;20039;-72
2022/10/19 10:15:16;;;;;;;1.55;0.70;;;16.50;84.50;;;;;;4915095;29;20511;-73
2022/10/19 10:17:46;;;;;;;3.75;0.70;;;16.90;84.40;;;;;;4916986;29;20393;-71
2022/10/19 10:20:22;;;;;;;7.60;0.95;;;17.90;81.20;;;;;;4917786;29;20031;-71
2022/10/19 10:23:05;;;;;;;2.25;0.80;;;19.10;76.90;;;;;;4921761;29;20032;-70
2022/10/19 10:25:35;;;;;;;4.30;1.20;;;19.80;73.10;;;;;;4917180;29;20030;-71
2022/10/19 10:28:29;;;;;;;2.90;1.20;;;20.40;71.30;;;;;;4917970;29;20040;-70
2022/10/19 10:31:05;;;;;;;3.58;0.90;;;20.60;70.10;;;;;;4914917;29;20128;-74
2022/10/19 10:33:35;;;;;;;2.33;1.00;;;21.00;68.50;;;;;;4911613;29;20492;-74
2022/10/19 10:36:09;;;;;;;7.68;1.10;;;20.90;67.50;;;;;;4916087;29;20063;-74
2022/10/19 10:38:46;;;;;;;7.00;1.70;;;21.50;63.10;;;;;;4919027;29;20649;-72
2022/10/19 10:41:21;;;;;;;2.90;0.98;;;21.30;62.40;;;;;;4919465;29;20504;-71
2022/10/19 10:44:02;;;;;;;1.73;0.70;;;20.50;65.30;;;;;;4920643;29;20082;-72
2022/10/19 10:46:33;;;;;;;3.95;1.02;;;19.50;67.20;;;;;;4926945;29;20082;-72
2022/10/19 10:49:05;;;;;;;4.03;0.98;;;18.70;71.30;;;;;;4926945;28;20118;-69
2022/10/19 10:51:44;;;;;;;6.93;1.23;;;18.10;73.40;;;;;;4917485;29;20036;-69
2022/10/19 10:54:31;;;;;;;2.00;0.85;;;17.60;75.80;;;;;;4919564;29;20035;-72
2022/10/19 10:57:10;;;;;;;4.75;1.27;;;17.20;77.30;;;;;;4920863;29;20497;-70
2022/10/19 11:00:11;;;;;;;3.92;0.90;;;16.90;78.50;;;;;;4922630;29;20035;-69
2022/10/19 11:03:07;;;;;;;3.70;0.93;;;16.90;80.00;;;;;;4914822;29;20068;-70
2022/10/19 11:05:54;;;;;;;2.25;0.60;;;17.00;78.80;;;;;;4918189;29;20036;-71
2022/10/19 11:08:42;;;;;;;6.35;0.90;;;17.10;77.20;;;;;;4917193;29;20053;-71
2022/10/19 11:11:19;;;;;;;3.55;0.80;;;17.10;78.40;;;;;;4922124;29;20090;-72
2022/10/19 11:13:52;;;;;;;6.18;0.70;;;17.00;78.90;;;;;;4918603;29;20040;-71
2022/10/19 11:16:25;;;;;;;3.88;1.05;;;17.00;77.50;;;;;;4914579;29;20551;-73
2022/10/19 11:18:57;;;;;;;1.75;0.57;;;16.90;76.70;;;;;;4919954;29;20861;-72
2022/10/19 11:21:43;;;;;;;2.55;0.73;;;16.80;77.20;;;;;;4923968;29;20082;-73
2022/10/19 11:24:34;;;;;;;3.92;0.35;;;16.70;78.70;;;;;;4911695;29;20028;-70
2022/10/19 11:27:18;;;;;;;3.10;0.75;;;16.80;79.00;;;;;;4918854;29;20043;-70
2022/10/19 11:30:02;;;;;;;3.90;0.63;;;16.80;77.80;;;;;;4928132;29;20139;-74
2022/10/19 11:32:39;;;;;;;4.63;0.75;;;16.80;77.40;;;;;;4918104;29;20761;-76
2022/10/19 11:35:14;;;;;;;2.30;0.75;;;16.80;78.90;;;;;;4921687;29;20118;-71
2022/10/19 11:38:15;;;;;;;2.65;0.77;;;16.80;79.30;;;;;;4909618;29;20024;-65
2022/10/19 11:41:03;;;;;;;1.60;0.82;;;16.80;80.40;;;;;;4929114;29;20678;-65
2022/10/19 11:44:03;;;;;;;3.60;1.00;;;16.80;79.10;;;;;;4920719;29;20058;-65
2022/10/19 11:46:44;;;;;;;5.03;1.48;;;16.80;78.80;;;;;;4913919;29;20024;-65
2022/10/19 11:49:31;;;;;;;3.13;0.85;;;16.80;80.70;;;;;;4916732;29;20162;-65
2022/10/19 11:52:30;;;;;;;4.18;1.08;;;16.80;79.80;;;;;;4913956;29;20040;-64
2022/10/19 11:55:20;;;;;;;4.57;0.80;;;16.80;81.00;;;;;;4918068;29;20036;-64
2022/10/19 11:57:51;;;;;;;3.80;0.75;;;16.90;79.60;;;;;;4925332;29;20130;-67
2022/10/19 12:00:21;;;;;;;6.65;1.30;;;16.90;79.00;;;;;;4920347;29;20504;-67
2022/10/19 12:03:28;;;;;;;5.63;1.02;;;17.00;78.10;;;;;;4917527;29;20096;-67
2022/10/19 12:06:23;;;;;;;7.53;1.25;;;17.00;78.80;;;;;;4917880;29;20071;-67
2022/10/19 12:09:07;;;;;;;3.78;0.80;;;17.00;78.80;;;;;;4918336;29;20066;-66
2022/10/19 12:11:39;;;;;;;3.58;0.90;;;17.00;79.90;;;;;;4915302;29;20050;-66
2022/10/19 12:14:13;;;;;;;4.07;0.98;;;17.10;80.70;;;;;;4914702;29;20031;-67
2022/10/19 12:16:43;;;;;;;5.68;0.90;;;17.20;76.20;;;;;;4919500;29;20035;-73
2022/10/19 12:19:18;;;;;;;3.78;1.02;;;17.10;74.90;;;;;;4917900;29;20063;-67
2022/10/19 12:21:45;;;;;;;5.73;0.90;;;17.10;75.40;;;;;;4917211;29;20747;-67
2022/10/19 12:24:21;;;;;;;6.30;0.93;;;17.00;76.20;;;;;;4923880;29;20793;-67
2022/10/19 12:26:50;;;;;;;2.25;1.00;;;17.00;76.20;;;;;;4918006;29;20032;-67
2022/10/19 12:29:27;;;;;;;3.50;0.85;;;17.00;78.70;;;;;;4910652;29;20156;-68
2022/10/19 12:31:54;;;;;;;3.17;1.02;;;17.00;78.80;;;;;;4913901;29;20039;-66
2022/10/19 12:34:58;;;;;;;2.90;0.85;;;17.00;78.70;;;;;;4915460;29;20042;-67
2022/10/19 12:37:59;;;;;;;4.57;0.85;;;17.10;77.70;;;;;;4924004;29;20040;-67
2022/10/19 12:40:38;;;;;;;3.08;1.08;;;17.10;77.20;;;;;;4914769;29;20050;-67
2022/10/19 12:43:31;;;;;;;3.72;1.10;;;17.10;77.00;;;;;;4918836;29;20040;-65
2022/10/19 12:46:09;;;;;;;2.38;0.60;;;17.20;76.30;;;;;;4917782;29;20561;-67
2022/10/19 12:48:36;;;;;;;4.70;0.90;;;17.30;74.50;;;;;;4917317;29;20032;-67
2022/10/19 12:51:05;;;;;;;2.58;0.82;;;17.40;73.30;;;;;;4908030;29;20044;-66
2022/10/19 12:53:44;;;;;;;10.95;3.28;;;17.50;72.80;;;;;;4904026;29;20454;-71
2022/10/19 12:56:21;;;;;;;6.03;2.10;;;17.50;75.70;;;;;;4901573;29;20051;-70
2022/10/19 12:58:58;;;;;;;4.95;1.40;;;17.80;74.30;;;;;;4895601;29;20036;-71
2022/10/19 13:01:42;;;;;;;4.60;1.45;;;18.00;73.40;;;;;;4903351;29;20027;-69
2022/10/19 13:04:19;;;;;;;4.28;0.95;;;18.00;72.80;;;;;;4899213;29;20036;-70
2022/10/19 13:06:50;;;;;;;3.95;0.95;;;18.10;72.60;;;;;;4899742;29;20040;-69
2022/10/19 13:09:43;;;;;;;3.63;1.00;;;18.20;72.40;;;;;;4900237;29;20036;-72
2022/10/19 13:12:14;;;;;;;2.83;0.60;;;18.10;72.30;;;;;;4899604;29;20036;-72